sensor_id;sensor_type;location;lat;lon;timestamp;P1;durP1;ratioP1;P2;durP2;ratioP2
51764;SDS011;37835;53.256;6.456;2024-03-08T00:01:01;44.83;;;26.20;;
51764;SDS011;37835;53.256;6.456;2024-03-08T00:03:27;44.40;;;26.17;;
51764;SDS011;37835;53.256;6.456;2024-03-08T00:05:54;50.83;;;28.73;;
51764;SDS011;37835;53.256;6.456;2024-03-08T00:08:21;51.53;;;28.00;;
51764;SDS011;37835;53.256;6.456;2024-03-08T00:10:46;52.03;;;29.13;;
51764;SDS011;37835;53.256;6.456;2024-03-08T00:13:12;46.60;;;29.07;;
51764;SDS011;37835;53.256;6.456;2024-03-08T00:15:37;51.05;;;29.13;;
51764;SDS011;37835;53.256;6.456;2024-03-08T00:18:03;53.27;;;29.43;;
51764;SDS011;37835;53.256;6.456;2024-03-08T00:20:29;56.47;;;30.03;;
51764;SDS011;37835;53.256;6.456;2024-03-08T00:22:55;59.25;;;29.90;;
51764;SDS011;37835;53.256;6.456;2024-03-08T00:25:22;50.05;;;29.52;;
51764;SDS011;37835;53.256;6.456;2024-03-08T00:27:48;52.60;;;31.73;;
51764;SDS011;37835;53.256;6.456;2024-03-08T00:30:14;57.58;;;30.35;;
51764;SDS011;37835;53.256;6.456;2024-03-08T00:32:40;59.53;;;32.58;;
51764;SDS011;37835;53.256;6.456;2024-03-08T00:35:06;58.70;;;32.57;;
51764;SDS011;37835;53.256;6.456;2024-03-08T00:37:32;61.53;;;33.67;;
51764;SDS011;37835;53.256;6.456;2024-03-08T00:39:59;61.43;;;33.33;;
51764;SDS011;37835;53.256;6.456;2024-03-08T00:42:25;60.20;;;33.50;;
51764;SDS011;37835;53.256;6.456;2024-03-08T00:44:51;63.60;;;35.88;;
51764;SDS011;37835;53.256;6.456;2024-03-08T00:47:17;65.78;;;35.58;;
51764;SDS011;37835;53.256;6.456;2024-03-08T00:49:42;69.50;;;34.90;;
51764;SDS011;37835;53.256;6.456;2024-03-08T00:52:08;70.40;;;37.07;;
51764;SDS011;37835;53.256;6.456;2024-03-08T00:54:34;67.15;;;35.72;;
51764;SDS011;37835;53.256;6.456;2024-03-08T00:57:03;65.38;;;35.95;;
51764;SDS011;37835;53.256;6.456;2024-03-08T00:59:29;74.10;;;37.35;;
51764;SDS011;37835;53.256;6.456;2024-03-08T01:01:58;68.57;;;35.43;;
51764;SDS011;37835;53.256;6.456;2024-03-08T01:04:27;68.80;;;35.93;;
51764;SDS011;37835;53.256;6.456;2024-03-08T01:06:56;72.67;;;37.53;;
51764;SDS011;37835;53.256;6.456;2024-03-08T01:09:23;70.00;;;37.47;;
51764;SDS011;37835;53.256;6.456;2024-03-08T01:11:49;72.70;;;37.73;;
51764;SDS011;37835;53.256;6.456;2024-03-08T01:14:15;71.07;;;37.50;;
51764;SDS011;37835;53.256;6.456;2024-03-08T01:16:41;72.13;;;37.40;;
51764;SDS011;37835;53.256;6.456;2024-03-08T01:19:07;71.77;;;37.27;;
51764;SDS011;37835;53.256;6.456;2024-03-08T01:21:32;71.53;;;37.97;;
51764;SDS011;37835;53.256;6.456;2024-03-08T01:23:59;78.90;;;39.40;;
51764;SDS011;37835;53.256;6.456;2024-03-08T01:26:25;73.80;;;37.40;;
51764;SDS011;37835;53.256;6.456;2024-03-08T01:28:51;71.53;;;38.10;;
51764;SDS011;37835;53.256;6.456;2024-03-08T01:31:16;72.17;;;37.27;;
51764;SDS011;37835;53.256;6.456;2024-03-08T01:33:42;76.07;;;39.73;;
51764;SDS011;37835;53.256;6.456;2024-03-08T01:36:08;66.83;;;37.80;;
51764;SDS011;37835;53.256;6.456;2024-03-08T01:38:33;68.97;;;37.83;;
51764;SDS011;37835;53.256;6.456;2024-03-08T01:40:59;70.30;;;36.33;;
51764;SDS011;37835;53.256;6.456;2024-03-08T01:43:25;71.20;;;38.43;;
51764;SDS011;37835;53.256;6.456;2024-03-08T01:45:53;68.83;;;36.67;;
51764;SDS011;37835;53.256;6.456;2024-03-08T01:48:20;72.33;;;37.73;;
51764;SDS011;37835;53.256;6.456;2024-03-08T01:50:52;66.18;;;37.05;;
51764;SDS011;37835;53.256;6.456;2024-03-08T01:53:19;72.93;;;38.07;;
51764;SDS011;37835;53.256;6.456;2024-03-08T01:55:46;70.87;;;38.20;;
51764;SDS011;37835;53.256;6.456;2024-03-08T01:58:13;64.83;;;36.57;;
51764;SDS011;37835;53.256;6.456;2024-03-08T02:00:41;65.63;;;35.87;;
51764;SDS011;37835;53.256;6.456;2024-03-08T02:03:09;68.00;;;36.77;;
51764;SDS011;37835;53.256;6.456;2024-03-08T02:05:36;64.20;;;35.37;;
51764;SDS011;37835;53.256;6.456;2024-03-08T02:08:03;71.07;;;36.37;;
51764;SDS011;37835;53.256;6.456;2024-03-08T02:10:32;73.87;;;37.87;;
51764;SDS011;37835;53.256;6.456;2024-03-08T02:13:01;67.63;;;36.13;;
51764;SDS011;37835;53.256;6.456;2024-03-08T02:18:24;67.77;;;35.87;;
51764;SDS011;37835;53.256;6.456;2024-03-08T02:20:53;63.53;;;34.73;;
51764;SDS011;37835;53.256;6.456;2024-03-08T02:23:23;65.20;;;35.60;;
51764;SDS011;37835;53.256;6.456;2024-03-08T02:25:52;64.87;;;36.10;;
51764;SDS011;37835;53.256;6.456;2024-03-08T02:28:19;70.43;;;35.40;;
51764;SDS011;37835;53.256;6.456;2024-03-08T02:30:46;61.45;;;35.90;;
51764;SDS011;37835;53.256;6.456;2024-03-08T02:33:15;64.33;;;34.20;;
51764;SDS011;37835;53.256;6.456;2024-03-08T02:35:43;65.80;;;37.13;;
51764;SDS011;37835;53.256;6.456;2024-03-08T02:38:13;64.47;;;36.30;;
51764;SDS011;37835;53.256;6.456;2024-03-08T02:40:41;63.03;;;35.17;;
51764;SDS011;37835;53.256;6.456;2024-03-08T02:43:11;63.00;;;33.67;;
51764;SDS011;37835;53.256;6.456;2024-03-08T02:45:37;62.00;;;34.60;;
51764;SDS011;37835;53.256;6.456;2024-03-08T02:48:04;63.47;;;34.60;;
51764;SDS011;37835;53.256;6.456;2024-03-08T02:50:33;67.07;;;35.10;;
51764;SDS011;37835;53.256;6.456;2024-03-08T02:53:02;61.87;;;33.03;;
51764;SDS011;37835;53.256;6.456;2024-03-08T02:55:29;66.00;;;34.27;;
51764;SDS011;37835;53.256;6.456;2024-03-08T02:57:55;66.30;;;34.53;;
51764;SDS011;37835;53.256;6.456;2024-03-08T03:00:21;65.20;;;32.80;;
51764;SDS011;37835;53.256;6.456;2024-03-08T03:02:51;57.37;;;32.93;;
51764;SDS011;37835;53.256;6.456;2024-03-08T03:05:22;57.87;;;33.37;;
51764;SDS011;37835;53.256;6.456;2024-03-08T03:07:48;64.63;;;34.20;;
51764;SDS011;37835;53.256;6.456;2024-03-08T03:10:14;59.17;;;32.80;;
51764;SDS011;37835;53.256;6.456;2024-03-08T03:12:42;54.17;;;31.20;;
51764;SDS011;37835;53.256;6.456;2024-03-08T03:15:08;57.67;;;32.83;;
51764;SDS011;37835;53.256;6.456;2024-03-08T03:17:34;56.63;;;31.83;;
51764;SDS011;37835;53.256;6.456;2024-03-08T03:20:00;58.83;;;32.23;;
51764;SDS011;37835;53.256;6.456;2024-03-08T03:22:34;58.27;;;31.90;;
51764;SDS011;37835;53.256;6.456;2024-03-08T03:25:00;56.63;;;31.67;;
51764;SDS011;37835;53.256;6.456;2024-03-08T03:27:27;59.37;;;31.73;;
51764;SDS011;37835;53.256;6.456;2024-03-08T03:29:55;53.27;;;31.33;;
51764;SDS011;37835;53.256;6.456;2024-03-08T03:32:22;57.70;;;31.20;;
51764;SDS011;37835;53.256;6.456;2024-03-08T03:34:49;57.07;;;31.83;;
51764;SDS011;37835;53.256;6.456;2024-03-08T03:37:18;58.13;;;31.07;;
51764;SDS011;37835;53.256;6.456;2024-03-08T03:39:44;53.43;;;31.03;;
51764;SDS011;37835;53.256;6.456;2024-03-08T03:42:17;57.37;;;31.33;;
51764;SDS011;37835;53.256;6.456;2024-03-08T03:44:44;57.57;;;30.53;;
51764;SDS011;37835;53.256;6.456;2024-03-08T03:47:11;58.07;;;32.07;;
51764;SDS011;37835;53.256;6.456;2024-03-08T03:49:36;57.40;;;31.70;;
51764;SDS011;37835;53.256;6.456;2024-03-08T03:52:02;55.50;;;30.00;;
51764;SDS011;37835;53.256;6.456;2024-03-08T03:54:29;56.43;;;31.50;;
51764;SDS011;37835;53.256;6.456;2024-03-08T03:56:55;54.87;;;30.80;;
51764;SDS011;37835;53.256;6.456;2024-03-08T03:59:21;52.80;;;30.47;;
51764;SDS011;37835;53.256;6.456;2024-03-08T04:01:47;56.00;;;31.43;;
51764;SDS011;37835;53.256;6.456;2024-03-08T04:04:14;52.17;;;28.83;;
51764;SDS011;37835;53.256;6.456;2024-03-08T04:06:40;51.57;;;29.07;;
51764;SDS011;37835;53.256;6.456;2024-03-08T04:09:07;52.67;;;29.97;;
51764;SDS011;37835;53.256;6.456;2024-03-08T04:11:32;55.90;;;31.03;;
51764;SDS011;37835;53.256;6.456;2024-03-08T04:13:58;53.07;;;30.10;;
51764;SDS011;37835;53.256;6.456;2024-03-08T04:16:24;57.43;;;31.13;;
51764;SDS011;37835;53.256;6.456;2024-03-08T04:18:51;56.83;;;30.70;;
51764;SDS011;37835;53.256;6.456;2024-03-08T04:21:17;52.07;;;28.80;;
51764;SDS011;37835;53.256;6.456;2024-03-08T04:23:44;56.20;;;30.73;;
51764;SDS011;37835;53.256;6.456;2024-03-08T04:26:10;55.33;;;29.63;;
51764;SDS011;37835;53.256;6.456;2024-03-08T04:28:36;49.70;;;29.47;;
51764;SDS011;37835;53.256;6.456;2024-03-08T04:31:03;51.27;;;29.47;;
51764;SDS011;37835;53.256;6.456;2024-03-08T04:33:29;54.60;;;29.53;;
51764;SDS011;37835;53.256;6.456;2024-03-08T04:35:54;55.07;;;29.60;;
51764;SDS011;37835;53.256;6.456;2024-03-08T04:38:20;57.13;;;29.63;;
51764;SDS011;37835;53.256;6.456;2024-03-08T04:40:47;53.07;;;29.67;;
51764;SDS011;37835;53.256;6.456;2024-03-08T04:43:13;55.67;;;29.63;;
51764;SDS011;37835;53.256;6.456;2024-03-08T04:45:40;52.33;;;29.17;;
51764;SDS011;37835;53.256;6.456;2024-03-08T04:48:08;53.63;;;30.23;;
51764;SDS011;37835;53.256;6.456;2024-03-08T04:50:34;55.43;;;30.03;;
51764;SDS011;37835;53.256;6.456;2024-03-08T04:53:00;55.50;;;28.77;;
51764;SDS011;37835;53.256;6.456;2024-03-08T04:55:25;52.93;;;29.77;;
51764;SDS011;37835;53.256;6.456;2024-03-08T04:57:51;57.47;;;31.40;;
51764;SDS011;37835;53.256;6.456;2024-03-08T05:00:18;54.73;;;28.93;;
51764;SDS011;37835;53.256;6.456;2024-03-08T05:02:44;53.27;;;29.90;;
51764;SDS011;37835;53.256;6.456;2024-03-08T05:05:10;52.07;;;29.20;;
51764;SDS011;37835;53.256;6.456;2024-03-08T05:07:39;53.57;;;28.60;;
51764;SDS011;37835;53.256;6.456;2024-03-08T05:10:05;52.07;;;29.83;;
51764;SDS011;37835;53.256;6.456;2024-03-08T05:12:32;51.63;;;29.17;;
51764;SDS011;37835;53.256;6.456;2024-03-08T05:14:58;58.73;;;29.80;;
51764;SDS011;37835;53.256;6.456;2024-03-08T05:17:24;47.53;;;28.30;;
51764;SDS011;37835;53.256;6.456;2024-03-08T05:19:50;49.50;;;29.13;;
51764;SDS011;37835;53.256;6.456;2024-03-08T05:22:16;52.97;;;28.47;;
51764;SDS011;37835;53.256;6.456;2024-03-08T05:24:42;50.57;;;27.83;;
51764;SDS011;37835;53.256;6.456;2024-03-08T05:27:08;51.33;;;28.37;;
51764;SDS011;37835;53.256;6.456;2024-03-08T05:29:34;55.17;;;29.60;;
51764;SDS011;37835;53.256;6.456;2024-03-08T05:31:59;50.20;;;28.33;;
51764;SDS011;37835;53.256;6.456;2024-03-08T05:34:26;60.13;;;29.23;;
51764;SDS011;37835;53.256;6.456;2024-03-08T05:36:53;56.63;;;27.87;;
51764;SDS011;37835;53.256;6.456;2024-03-08T05:39:19;50.80;;;27.97;;
51764;SDS011;37835;53.256;6.456;2024-03-08T05:41:45;51.73;;;28.00;;
51764;SDS011;37835;53.256;6.456;2024-03-08T05:44:11;49.33;;;28.97;;
51764;SDS011;37835;53.256;6.456;2024-03-08T05:46:38;49.10;;;27.90;;
51764;SDS011;37835;53.256;6.456;2024-03-08T05:49:05;49.57;;;27.70;;
51764;SDS011;37835;53.256;6.456;2024-03-08T05:51:31;53.67;;;27.63;;
51764;SDS011;37835;53.256;6.456;2024-03-08T05:53:59;47.43;;;27.23;;
51764;SDS011;37835;53.256;6.456;2024-03-08T05:56:28;52.17;;;28.63;;
51764;SDS011;37835;53.256;6.456;2024-03-08T05:58:54;48.93;;;27.00;;
51764;SDS011;37835;53.256;6.456;2024-03-08T06:01:19;52.60;;;27.63;;
51764;SDS011;37835;53.256;6.456;2024-03-08T06:03:46;47.63;;;28.03;;
51764;SDS011;37835;53.256;6.456;2024-03-08T06:06:14;49.50;;;27.00;;
51764;SDS011;37835;53.256;6.456;2024-03-08T06:08:40;50.07;;;28.00;;
51764;SDS011;37835;53.256;6.456;2024-03-08T06:11:08;50.37;;;28.70;;
51764;SDS011;37835;53.256;6.456;2024-03-08T06:13:34;48.90;;;27.30;;
51764;SDS011;37835;53.256;6.456;2024-03-08T06:16:00;53.03;;;28.80;;
51764;SDS011;37835;53.256;6.456;2024-03-08T06:18:29;49.80;;;27.03;;
51764;SDS011;37835;53.256;6.456;2024-03-08T06:20:59;53.40;;;28.33;;
51764;SDS011;37835;53.256;6.456;2024-03-08T06:23:25;50.40;;;27.50;;
51764;SDS011;37835;53.256;6.456;2024-03-08T06:25:52;49.33;;;27.63;;
51764;SDS011;37835;53.256;6.456;2024-03-08T06:28:18;48.93;;;26.97;;
51764;SDS011;37835;53.256;6.456;2024-03-08T06:30:44;48.03;;;26.97;;
51764;SDS011;37835;53.256;6.456;2024-03-08T06:33:09;50.37;;;26.53;;
51764;SDS011;37835;53.256;6.456;2024-03-08T06:35:35;45.97;;;26.30;;
51764;SDS011;37835;53.256;6.456;2024-03-08T06:38:03;51.10;;;26.77;;
51764;SDS011;37835;53.256;6.456;2024-03-08T06:40:29;50.90;;;27.17;;
51764;SDS011;37835;53.256;6.456;2024-03-08T06:42:55;49.33;;;26.93;;
51764;SDS011;37835;53.256;6.456;2024-03-08T06:45:20;47.87;;;26.97;;
51764;SDS011;37835;53.256;6.456;2024-03-08T06:47:48;49.50;;;27.63;;
51764;SDS011;37835;53.256;6.456;2024-03-08T06:50:14;51.53;;;26.20;;
51764;SDS011;37835;53.256;6.456;2024-03-08T06:52:40;57.17;;;28.40;;
51764;SDS011;37835;53.256;6.456;2024-03-08T06:55:09;50.50;;;26.97;;
51764;SDS011;37835;53.256;6.456;2024-03-08T06:57:40;50.60;;;27.07;;
51764;SDS011;37835;53.256;6.456;2024-03-08T07:00:08;46.07;;;26.17;;
51764;SDS011;37835;53.256;6.456;2024-03-08T07:02:37;49.40;;;27.40;;
51764;SDS011;37835;53.256;6.456;2024-03-08T07:05:04;45.60;;;27.27;;
51764;SDS011;37835;53.256;6.456;2024-03-08T07:07:31;45.93;;;26.03;;
51764;SDS011;37835;53.256;6.456;2024-03-08T07:09:58;50.60;;;27.67;;
51764;SDS011;37835;53.256;6.456;2024-03-08T07:12:24;46.37;;;27.00;;
51764;SDS011;37835;53.256;6.456;2024-03-08T07:14:51;45.40;;;26.33;;
51764;SDS011;37835;53.256;6.456;2024-03-08T07:17:17;46.87;;;27.67;;
51764;SDS011;37835;53.256;6.456;2024-03-08T07:19:42;47.30;;;27.00;;
51764;SDS011;37835;53.256;6.456;2024-03-08T07:22:08;50.33;;;27.57;;
51764;SDS011;37835;53.256;6.456;2024-03-08T07:24:35;47.23;;;27.27;;
51764;SDS011;37835;53.256;6.456;2024-03-08T07:27:19;52.30;;;28.13;;
51764;SDS011;37835;53.256;6.456;2024-03-08T07:29:45;47.67;;;27.50;;
51764;SDS011;37835;53.256;6.456;2024-03-08T07:32:12;53.17;;;27.93;;
51764;SDS011;37835;53.256;6.456;2024-03-08T07:34:46;48.23;;;27.30;;
51764;SDS011;37835;53.256;6.456;2024-03-08T07:37:13;52.33;;;27.60;;
51764;SDS011;37835;53.256;6.456;2024-03-08T07:39:39;48.93;;;26.90;;
51764;SDS011;37835;53.256;6.456;2024-03-08T07:42:05;50.53;;;28.27;;
51764;SDS011;37835;53.256;6.456;2024-03-08T07:44:30;50.83;;;27.60;;
51764;SDS011;37835;53.256;6.456;2024-03-08T07:46:57;51.10;;;27.50;;
51764;SDS011;37835;53.256;6.456;2024-03-08T07:49:23;50.43;;;28.07;;
51764;SDS011;37835;53.256;6.456;2024-03-08T07:51:49;48.83;;;26.40;;
51764;SDS011;37835;53.256;6.456;2024-03-08T07:54:15;50.50;;;27.23;;
51764;SDS011;37835;53.256;6.456;2024-03-08T07:56:41;49.30;;;28.03;;
51764;SDS011;37835;53.256;6.456;2024-03-08T07:59:07;47.23;;;27.10;;
51764;SDS011;37835;53.256;6.456;2024-03-08T08:01:33;47.90;;;27.70;;
51764;SDS011;37835;53.256;6.456;2024-03-08T08:03:59;50.63;;;27.63;;
51764;SDS011;37835;53.256;6.456;2024-03-08T08:06:26;50.83;;;29.10;;
51764;SDS011;37835;53.256;6.456;2024-03-08T08:08:52;50.00;;;28.20;;
51764;SDS011;37835;53.256;6.456;2024-03-08T08:11:18;48.70;;;28.50;;
51764;SDS011;37835;53.256;6.456;2024-03-08T08:13:45;48.93;;;28.40;;
51764;SDS011;37835;53.256;6.456;2024-03-08T08:16:11;48.23;;;28.97;;
51764;SDS011;37835;53.256;6.456;2024-03-08T08:18:38;50.20;;;28.67;;
51764;SDS011;37835;53.256;6.456;2024-03-08T08:21:04;51.10;;;30.33;;
51764;SDS011;37835;53.256;6.456;2024-03-08T08:23:33;55.43;;;29.27;;
51764;SDS011;37835;53.256;6.456;2024-03-08T08:25:59;48.87;;;29.17;;
51764;SDS011;37835;53.256;6.456;2024-03-08T08:28:26;51.17;;;30.07;;
51764;SDS011;37835;53.256;6.456;2024-03-08T08:30:52;47.97;;;28.97;;
51764;SDS011;37835;53.256;6.456;2024-03-08T08:33:17;49.40;;;30.33;;
51764;SDS011;37835;53.256;6.456;2024-03-08T08:35:43;47.43;;;28.33;;
51764;SDS011;37835;53.256;6.456;2024-03-08T08:38:09;46.00;;;29.40;;
51764;SDS011;37835;53.256;6.456;2024-03-08T08:40:34;47.63;;;28.40;;
51764;SDS011;37835;53.256;6.456;2024-03-08T08:43:02;47.70;;;29.43;;
51764;SDS011;37835;53.256;6.456;2024-03-08T08:45:30;47.37;;;28.87;;
51764;SDS011;37835;53.256;6.456;2024-03-08T08:47:56;49.77;;;29.27;;
51764;SDS011;37835;53.256;6.456;2024-03-08T08:50:25;46.03;;;28.02;;
51764;SDS011;37835;53.256;6.456;2024-03-08T08:52:54;45.10;;;28.67;;
51764;SDS011;37835;53.256;6.456;2024-03-08T08:55:20;48.35;;;28.63;;
51764;SDS011;37835;53.256;6.456;2024-03-08T08:57:50;45.97;;;27.95;;
51764;SDS011;37835;53.256;6.456;2024-03-08T09:00:17;43.97;;;28.00;;
51764;SDS011;37835;53.256;6.456;2024-03-08T09:02:45;46.75;;;28.77;;
51764;SDS011;37835;53.256;6.456;2024-03-08T09:05:10;46.85;;;27.42;;
51764;SDS011;37835;53.256;6.456;2024-03-08T09:07:36;45.65;;;27.98;;
51764;SDS011;37835;53.256;6.456;2024-03-08T09:10:02;47.00;;;27.10;;
51764;SDS011;37835;53.256;6.456;2024-03-08T09:12:29;42.13;;;27.33;;
51764;SDS011;37835;53.256;6.456;2024-03-08T09:14:54;42.83;;;26.48;;
51764;SDS011;37835;53.256;6.456;2024-03-08T09:17:20;42.13;;;26.00;;
51764;SDS011;37835;53.256;6.456;2024-03-08T09:19:46;42.75;;;27.23;;
51764;SDS011;37835;53.256;6.456;2024-03-08T09:22:12;40.75;;;25.55;;
51764;SDS011;37835;53.256;6.456;2024-03-08T09:24:38;38.95;;;25.80;;
51764;SDS011;37835;53.256;6.456;2024-03-08T09:27:05;48.67;;;27.42;;
51764;SDS011;37835;53.256;6.456;2024-03-08T09:29:31;41.47;;;26.77;;
51764;SDS011;37835;53.256;6.456;2024-03-08T09:31:57;41.88;;;26.60;;
51764;SDS011;37835;53.256;6.456;2024-03-08T09:34:23;41.22;;;26.63;;
51764;SDS011;37835;53.256;6.456;2024-03-08T09:36:49;41.85;;;26.52;;
51764;SDS011;37835;53.256;6.456;2024-03-08T09:39:17;43.88;;;26.13;;
51764;SDS011;37835;53.256;6.456;2024-03-08T09:41:45;40.83;;;26.58;;
51764;SDS011;37835;53.256;6.456;2024-03-08T09:44:15;40.90;;;26.85;;
51764;SDS011;37835;53.256;6.456;2024-03-08T09:46:41;42.47;;;27.08;;
51764;SDS011;37835;53.256;6.456;2024-03-08T09:49:07;44.45;;;27.70;;
51764;SDS011;37835;53.256;6.456;2024-03-08T09:51:34;45.33;;;27.77;;
51764;SDS011;37835;53.256;6.456;2024-03-08T09:54:00;40.47;;;27.50;;
51764;SDS011;37835;53.256;6.456;2024-03-08T09:56:29;43.53;;;28.27;;
51764;SDS011;37835;53.256;6.456;2024-03-08T09:58:58;42.83;;;28.25;;
51764;SDS011;37835;53.256;6.456;2024-03-08T10:01:42;45.35;;;28.15;;
51764;SDS011;37835;53.256;6.456;2024-03-08T10:04:09;42.55;;;27.75;;
51764;SDS011;37835;53.256;6.456;2024-03-08T10:06:35;43.03;;;28.63;;
51764;SDS011;37835;53.256;6.456;2024-03-08T10:09:01;46.10;;;27.92;;
51764;SDS011;37835;53.256;6.456;2024-03-08T10:11:27;41.03;;;28.02;;
51764;SDS011;37835;53.256;6.456;2024-03-08T10:13:54;46.15;;;29.15;;
51764;SDS011;37835;53.256;6.456;2024-03-08T10:16:19;42.33;;;27.80;;
51764;SDS011;37835;53.256;6.456;2024-03-08T10:18:46;44.42;;;29.13;;
51764;SDS011;37835;53.256;6.456;2024-03-08T10:21:11;46.40;;;28.30;;
51764;SDS011;37835;53.256;6.456;2024-03-08T10:23:38;42.33;;;27.73;;
51764;SDS011;37835;53.256;6.456;2024-03-08T10:26:14;43.42;;;29.05;;
51764;SDS011;37835;53.256;6.456;2024-03-08T10:28:41;40.45;;;28.05;;
51764;SDS011;37835;53.256;6.456;2024-03-08T10:31:08;43.30;;;29.02;;
51764;SDS011;37835;53.256;6.456;2024-03-08T10:33:34;45.83;;;28.70;;
51764;SDS011;37835;53.256;6.456;2024-03-08T10:36:00;43.63;;;28.13;;
51764;SDS011;37835;53.256;6.456;2024-03-08T10:38:26;42.13;;;27.92;;
51764;SDS011;37835;53.256;6.456;2024-03-08T10:40:57;42.07;;;27.53;;
51764;SDS011;37835;53.256;6.456;2024-03-08T10:43:23;44.85;;;27.83;;
51764;SDS011;37835;53.256;6.456;2024-03-08T10:46:16;43.00;;;27.02;;
51764;SDS011;37835;53.256;6.456;2024-03-08T10:48:55;40.63;;;27.13;;
51764;SDS011;37835;53.256;6.456;2024-03-08T10:51:28;41.50;;;27.63;;
51764;SDS011;37835;53.256;6.456;2024-03-08T10:53:55;42.55;;;28.38;;
51764;SDS011;37835;53.256;6.456;2024-03-08T10:56:24;40.20;;;27.42;;
51764;SDS011;37835;53.256;6.456;2024-03-08T10:58:52;46.83;;;27.83;;
51764;SDS011;37835;53.256;6.456;2024-03-08T11:01:19;41.78;;;27.67;;
51764;SDS011;37835;53.256;6.456;2024-03-08T11:03:45;40.17;;;26.48;;
51764;SDS011;37835;53.256;6.456;2024-03-08T11:08:45;45.67;;;26.92;;
51764;SDS011;37835;53.256;6.456;2024-03-08T11:11:27;42.15;;;27.55;;
51764;SDS011;37835;53.256;6.456;2024-03-08T11:13:58;38.08;;;26.08;;
51764;SDS011;37835;53.256;6.456;2024-03-08T11:18:53;40.28;;;27.70;;
51764;SDS011;37835;53.256;6.456;2024-03-08T11:21:35;37.80;;;26.38;;
51764;SDS011;37835;53.256;6.456;2024-03-08T11:24:13;45.58;;;27.60;;
51764;SDS011;37835;53.256;6.456;2024-03-08T11:26:41;40.83;;;27.95;;
51764;SDS011;37835;53.256;6.456;2024-03-08T11:32:36;37.22;;;26.15;;
51764;SDS011;37835;53.256;6.456;2024-03-08T11:34:47;40.95;;;27.48;;
51764;SDS011;37835;53.256;6.456;2024-03-08T11:37:14;42.20;;;27.80;;
51764;SDS011;37835;53.256;6.456;2024-03-08T11:39:52;41.75;;;27.15;;
51764;SDS011;37835;53.256;6.456;2024-03-08T11:42:24;37.25;;;27.05;;
51764;SDS011;37835;53.256;6.456;2024-03-08T11:44:51;42.35;;;27.30;;
51764;SDS011;37835;53.256;6.456;2024-03-08T11:47:17;40.53;;;27.20;;
51764;SDS011;37835;53.256;6.456;2024-03-08T11:49:43;41.80;;;27.98;;
51764;SDS011;37835;53.256;6.456;2024-03-08T11:52:13;40.58;;;27.75;;
51764;SDS011;37835;53.256;6.456;2024-03-08T11:54:40;38.55;;;26.70;;
51764;SDS011;37835;53.256;6.456;2024-03-08T11:57:17;40.55;;;27.58;;
51764;SDS011;37835;53.256;6.456;2024-03-08T11:59:49;41.58;;;28.00;;
51764;SDS011;37835;53.256;6.456;2024-03-08T12:02:18;41.78;;;27.67;;
51764;SDS011;37835;53.256;6.456;2024-03-08T12:04:46;43.13;;;29.08;;
51764;SDS011;37835;53.256;6.456;2024-03-08T12:07:12;40.20;;;28.55;;
51764;SDS011;37835;53.256;6.456;2024-03-08T12:09:42;36.45;;;27.48;;
51764;SDS011;37835;53.256;6.456;2024-03-08T12:12:11;42.70;;;28.75;;
51764;SDS011;37835;53.256;6.456;2024-03-08T12:14:37;40.45;;;28.05;;
51764;SDS011;37835;53.256;6.456;2024-03-08T12:17:04;39.30;;;27.50;;
51764;SDS011;37835;53.256;6.456;2024-03-08T12:19:30;40.75;;;27.35;;
51764;SDS011;37835;53.256;6.456;2024-03-08T12:21:57;39.65;;;27.58;;
51764;SDS011;37835;53.256;6.456;2024-03-08T12:24:34;39.15;;;26.55;;
51764;SDS011;37835;53.256;6.456;2024-03-08T12:27:16;36.78;;;26.70;;
51764;SDS011;37835;53.256;6.456;2024-03-08T12:29:43;38.83;;;26.73;;
51764;SDS011;37835;53.256;6.456;2024-03-08T12:32:09;36.75;;;27.02;;
51764;SDS011;37835;53.256;6.456;2024-03-08T12:34:36;37.63;;;27.52;;
51764;SDS011;37835;53.256;6.456;2024-03-08T12:37:02;39.22;;;27.30;;
51764;SDS011;37835;53.256;6.456;2024-03-08T12:39:32;36.42;;;27.13;;
51764;SDS011;37835;53.256;6.456;2024-03-08T12:41:58;37.58;;;26.42;;
51764;SDS011;37835;53.256;6.456;2024-03-08T12:44:24;35.38;;;26.17;;
51764;SDS011;37835;53.256;6.456;2024-03-08T12:46:51;39.53;;;26.52;;
51764;SDS011;37835;53.256;6.456;2024-03-08T12:49:18;35.08;;;26.73;;
51764;SDS011;37835;53.256;6.456;2024-03-08T12:51:47;37.42;;;26.67;;
51764;SDS011;37835;53.256;6.456;2024-03-08T12:54:13;36.05;;;25.50;;
51764;SDS011;37835;53.256;6.456;2024-03-08T12:56:39;38.15;;;26.77;;
51764;SDS011;37835;53.256;6.456;2024-03-08T12:59:05;38.13;;;25.95;;
51764;SDS011;37835;53.256;6.456;2024-03-08T13:01:38;37.63;;;26.52;;
51764;SDS011;37835;53.256;6.456;2024-03-08T13:04:04;36.78;;;26.38;;
51764;SDS011;37835;53.256;6.456;2024-03-08T13:06:32;38.72;;;26.35;;
51764;SDS011;37835;53.256;6.456;2024-03-08T13:08:58;35.20;;;25.55;;
51764;SDS011;37835;53.256;6.456;2024-03-08T13:11:25;36.03;;;25.77;;
51764;SDS011;37835;53.256;6.456;2024-03-08T13:13:52;34.63;;;26.02;;
51764;SDS011;37835;53.256;6.456;2024-03-08T13:16:17;34.92;;;25.52;;
51764;SDS011;37835;53.256;6.456;2024-03-08T13:18:44;34.45;;;25.08;;
51764;SDS011;37835;53.256;6.456;2024-03-08T13:21:13;35.92;;;25.75;;
51764;SDS011;37835;53.256;6.456;2024-03-08T13:23:40;36.10;;;25.98;;
51764;SDS011;37835;53.256;6.456;2024-03-08T13:26:08;35.17;;;24.40;;
51764;SDS011;37835;53.256;6.456;2024-03-08T13:28:37;36.47;;;24.13;;
51764;SDS011;37835;53.256;6.456;2024-03-08T13:31:06;31.75;;;23.83;;
51764;SDS011;37835;53.256;6.456;2024-03-08T13:33:35;32.88;;;23.80;;
51764;SDS011;37835;53.256;6.456;2024-03-08T13:36:05;32.15;;;23.63;;
51764;SDS011;37835;53.256;6.456;2024-03-08T13:38:34;32.28;;;23.08;;
51764;SDS011;37835;53.256;6.456;2024-03-08T13:41:01;33.08;;;23.75;;
51764;SDS011;37835;53.256;6.456;2024-03-08T13:43:27;30.10;;;22.70;;
51764;SDS011;37835;53.256;6.456;2024-03-08T13:45:53;30.58;;;23.10;;
51764;SDS011;37835;53.256;6.456;2024-03-08T13:48:22;33.38;;;22.60;;
51764;SDS011;37835;53.256;6.456;2024-03-08T13:50:48;31.98;;;21.85;;
51764;SDS011;37835;53.256;6.456;2024-03-08T13:53:15;32.40;;;22.27;;
51764;SDS011;37835;53.256;6.456;2024-03-08T13:55:40;28.17;;;21.80;;
51764;SDS011;37835;53.256;6.456;2024-03-08T13:58:06;30.15;;;22.33;;
51764;SDS011;37835;53.256;6.456;2024-03-08T14:00:35;30.30;;;22.83;;
51764;SDS011;37835;53.256;6.456;2024-03-08T14:03:03;32.30;;;22.50;;
51764;SDS011;37835;53.256;6.456;2024-03-08T14:05:31;28.58;;;21.50;;
51764;SDS011;37835;53.256;6.456;2024-03-08T14:08:00;28.98;;;21.08;;
51764;SDS011;37835;53.256;6.456;2024-03-08T14:10:29;29.00;;;22.13;;
51764;SDS011;37835;53.256;6.456;2024-03-08T14:12:56;31.75;;;22.08;;
51764;SDS011;37835;53.256;6.456;2024-03-08T14:15:22;31.42;;;22.10;;
51764;SDS011;37835;53.256;6.456;2024-03-08T14:17:55;29.85;;;21.80;;
51764;SDS011;37835;53.256;6.456;2024-03-08T14:20:23;34.70;;;22.55;;
51764;SDS011;37835;53.256;6.456;2024-03-08T14:22:55;33.40;;;21.17;;
51764;SDS011;37835;53.256;6.456;2024-03-08T14:25:21;28.20;;;21.80;;
51764;SDS011;37835;53.256;6.456;2024-03-08T14:27:51;28.98;;;21.83;;
51764;SDS011;37835;53.256;6.456;2024-03-08T14:30:32;29.20;;;22.35;;
51764;SDS011;37835;53.256;6.456;2024-03-08T14:33:03;26.30;;;20.85;;